createdAt,value
2017-09-04T00:01:58.134Z,8.40
2017-09-04T00:04:26.158Z,8.30
2017-09-04T00:06:54.183Z,8.30
2017-09-04T00:09:22.187Z,8.20
2017-09-04T00:11:50.234Z,8.10
2017-09-04T00:14:20.018Z,8.10
2017-09-04T00:16:48.038Z,8.10
2017-09-04T00:19:18.014Z,8.00
2017-09-04T00:21:50.686Z,8.10
2017-09-04T00:24:19.686Z,8.10
2017-09-04T00:26:49.698Z,8.20
2017-09-04T00:29:17.722Z,8.30
2017-09-04T00:31:50.970Z,8.20
2017-09-04T00:34:19.938Z,8.20
2017-09-04T00:36:49.958Z,8.10
2017-09-04T00:39:17.989Z,8.10
2017-09-04T00:41:46.002Z,8.10
2017-09-04T00:44:14.999Z,8.10
2017-09-04T00:46:43.990Z,8.00
2017-09-04T00:49:12.034Z,7.90
2017-09-04T00:51:41.962Z,8.00
2017-09-04T00:54:10.978Z,7.90
2017-09-04T00:56:38.986Z,7.90
2017-09-04T00:59:07.922Z,7.90
2017-09-04T01:01:35.961Z,7.80
2017-09-04T01:04:03.966Z,7.70
2017-09-04T01:06:31.978Z,7.80
2017-09-04T01:09:00.106Z,7.70
2017-09-04T01:11:28.122Z,7.70
2017-09-04T01:13:56.141Z,7.60
2017-09-04T01:16:26.162Z,7.50
2017-09-04T01:19:00.230Z,7.50
2017-09-04T01:21:28.254Z,7.50
2017-09-04T01:23:57.225Z,7.40
2017-09-04T01:26:25.249Z,7.20
2017-09-04T01:28:53.282Z,7.10
2017-09-04T01:31:21.302Z,7.10
2017-09-04T01:33:51.257Z,7.20
2017-09-04T01:36:19.437Z,7.20
2017-09-04T01:38:47.441Z,7.10
2017-09-04T01:41:15.461Z,7.10
2017-09-04T01:43:43.489Z,7.20
2017-09-04T01:46:11.514Z,7.20
2017-09-04T01:48:41.421Z,7.10
2017-09-04T01:51:11.457Z,6.90
2017-09-04T01:53:39.461Z,6.90
2017-09-04T01:56:07.477Z,6.80
2017-09-04T01:58:36.486Z,6.80
2017-09-04T02:01:05.458Z,6.80
2017-09-04T02:03:33.521Z,6.70
2017-09-04T02:06:02.714Z,6.70
2017-09-04T02:08:30.733Z,6.80
2017-09-04T02:10:59.513Z,6.90
2017-09-04T02:13:29.309Z,7.00
2017-09-04T02:15:57.328Z,7.00
2017-09-04T02:18:26.353Z,6.90
2017-09-04T02:20:58.653Z,6.80
2017-09-04T02:23:27.629Z,6.70
2017-09-04T02:25:57.645Z,6.70
2017-09-04T02:28:26.649Z,6.60
2017-09-04T02:30:55.620Z,6.60
2017-09-04T02:33:25.629Z,6.60
2017-09-04T02:35:53.678Z,6.50
2017-09-04T02:38:21.689Z,6.40
2017-09-04T02:40:49.705Z,6.40
2017-09-04T02:43:18.657Z,6.50
2017-09-04T02:45:46.677Z,6.50
2017-09-04T02:48:15.697Z,6.50
2017-09-04T02:50:43.750Z,6.40
2017-09-04T02:53:11.762Z,6.30
2017-09-04T02:55:40.729Z,6.30
2017-09-04T02:58:11.797Z,6.30
2017-09-04T03:00:40.764Z,6.30
2017-09-04T03:03:09.765Z,6.30
2017-09-04T03:05:38.764Z,6.40
2017-09-04T03:08:06.781Z,6.60
2017-09-04T03:10:34.812Z,6.60
2017-09-04T03:13:02.845Z,6.60
2017-09-04T03:15:30.856Z,6.60
2017-09-04T03:17:58.896Z,6.50
2017-09-04T03:20:26.933Z,6.40
2017-09-04T03:22:55.857Z,6.30
2017-09-04T03:25:24.851Z,6.40
2017-09-04T03:27:53.860Z,6.40
2017-09-04T03:30:22.846Z,6.30
2017-09-04T03:32:55.133Z,6.20
2017-09-04T03:35:23.160Z,6.10
2017-09-04T03:37:53.108Z,6.10
2017-09-04T03:40:23.125Z,6.00
2017-09-04T03:42:52.104Z,5.90
2017-09-04T03:45:20.136Z,5.90
2017-09-04T03:47:49.180Z,5.90
2017-09-04T03:50:18.160Z,6.00
2017-09-04T03:52:46.184Z,6.00
2017-09-04T03:55:16.165Z,6.00
2017-09-04T03:57:45.139Z,6.00
2017-09-04T04:00:14.121Z,6.00
2017-09-04T04:02:43.116Z,6.00
2017-09-04T04:05:12.100Z,5.90
2017-09-04T04:07:41.108Z,5.80
2017-09-04T04:10:12.868Z,5.80
2017-09-04T04:12:40.896Z,5.80
2017-09-04T04:15:10.845Z,5.70
2017-09-04T04:17:42.006Z,5.70
2017-09-04T04:20:10.992Z,5.60
2017-09-04T04:22:39.012Z,5.60
2017-09-04T04:25:07.065Z,5.70
2017-09-04T04:27:35.100Z,5.70
2017-09-04T04:30:03.120Z,5.80
2017-09-04T04:32:36.464Z,6.00
2017-09-04T04:35:04.500Z,6.10
2017-09-04T04:37:34.432Z,6.10
2017-09-04T04:40:04.464Z,6.10
2017-09-04T04:42:32.483Z,6.10
2017-09-04T04:45:01.408Z,6.00
2017-09-04T04:47:29.444Z,5.80
2017-09-04T04:49:57.464Z,5.70
2017-09-04T04:52:25.488Z,5.60
2017-09-04T04:54:55.476Z,5.50
2017-09-04T04:57:25.490Z,5.50
2017-09-04T04:59:53.524Z,5.60
2017-09-04T05:02:21.560Z,5.70
2017-09-04T05:04:49.620Z,5.80
2017-09-04T05:07:17.624Z,5.80
2017-09-04T05:09:45.739Z,5.80
2017-09-04T05:12:14.776Z,5.90
2017-09-04T05:14:42.844Z,6.10
2017-09-04T05:17:10.896Z,6.10
2017-09-04T05:19:38.940Z,6.20
2017-09-04T05:22:07.057Z,6.20
2017-09-04T05:24:35.095Z,6.30
2017-09-04T05:27:04.356Z,6.50
2017-09-04T05:29:33.479Z,6.70
2017-09-04T05:32:01.515Z,7.00
2017-09-04T05:34:30.571Z,7.30
2017-09-04T05:36:58.683Z,7.60
2017-09-04T05:39:29.644Z,7.80
2017-09-04T05:41:57.659Z,8.10
2017-09-04T05:44:25.688Z,8.40
2017-09-04T05:46:55.500Z,9.10
2017-09-04T05:49:24.467Z,9.10
2017-09-04T05:51:52.499Z,9.40
2017-09-04T05:54:20.547Z,9.50
2017-09-04T05:56:48.584Z,9.70
2017-09-04T05:59:16.655Z,9.90
2017-09-04T06:01:44.803Z,10.10
2017-09-04T06:04:14.835Z,10.30
2017-09-04T06:06:43.151Z,10.60
2017-09-04T06:09:11.231Z,10.80
2017-09-04T06:11:39.255Z,11.00
2017-09-04T06:14:08.243Z,11.20
2017-09-04T06:16:36.295Z,11.50
2017-09-04T06:19:04.323Z,11.70
2017-09-04T06:21:36.347Z,11.80
2017-09-04T06:24:04.379Z,11.90
2017-09-04T06:26:33.411Z,12.10
2017-09-04T06:29:01.483Z,12.30
2017-09-04T06:31:29.507Z,12.30
2017-09-04T06:33:57.527Z,12.20
2017-09-04T06:36:26.519Z,12.00
2017-09-04T06:38:55.499Z,12.00
2017-09-04T06:41:23.542Z,12.20
2017-09-04T06:43:51.595Z,12.40
2017-09-04T06:46:20.519Z,12.60
2017-09-04T06:48:48.543Z,12.70
2017-09-04T06:51:16.582Z,12.80
2017-09-04T06:53:45.550Z,13.00
2017-09-04T06:56:14.492Z,13.20
2017-09-04T06:58:43.458Z,13.30
2017-09-04T07:01:12.427Z,13.50
2017-09-04T07:03:41.411Z,13.70
2017-09-04T07:06:10.443Z,13.80
2017-09-04T07:08:38.874Z,13.70
2017-09-04T07:11:06.911Z,13.70
2017-09-04T07:13:34.942Z,14.00
2017-09-04T07:16:02.967Z,14.40
2017-09-04T07:18:30.986Z,14.60
2017-09-04T07:20:59.030Z,14.70
2017-09-04T07:23:27.058Z,15.10
2017-09-04T07:25:55.078Z,15.20
2017-09-04T07:28:27.774Z,15.50
2017-09-04T07:30:55.797Z,15.50
2017-09-04T07:33:23.830Z,15.30
2017-09-04T07:35:52.810Z,15.30
2017-09-04T07:38:22.794Z,15.60
2017-09-04T07:40:50.806Z,15.90
2017-09-04T07:43:19.774Z,16.00
2017-09-04T07:45:49.798Z,16.30
2017-09-04T07:48:17.817Z,16.70
2017-09-04T07:50:46.762Z,16.80
2017-09-04T07:53:14.774Z,17.00
2017-09-04T07:55:42.790Z,17.20
2017-09-04T07:58:10.822Z,17.40
2017-09-04T08:00:39.742Z,17.60
2017-09-04T08:03:07.758Z,17.70
2017-09-04T08:05:35.806Z,17.70
2017-09-04T08:08:03.821Z,17.80
2017-09-04T08:10:32.742Z,18.20
2017-09-04T08:13:02.658Z,18.50
2017-09-04T08:15:30.681Z,18.70
2017-09-04T08:17:59.618Z,18.50
2017-09-04T08:20:27.650Z,18.70
2017-09-04T08:22:56.573Z,19.10
2017-09-04T08:25:24.589Z,19.60
2017-09-04T08:27:57.025Z,19.80
2017-09-04T08:30:25.075Z,19.80
2017-09-04T08:32:57.065Z,20.20
2017-09-04T08:35:29.094Z,20.30
2017-09-04T08:38:00.022Z,20.60
2017-09-04T08:40:28.018Z,20.90
2017-09-04T08:42:57.017Z,20.90
2017-09-04T08:45:25.037Z,21.40
2017-09-04T08:47:53.125Z,21.40
2017-09-04T08:50:23.073Z,21.70
2017-09-04T08:52:51.089Z,21.60
2017-09-04T08:55:20.805Z,22.30
2017-09-04T08:57:48.831Z,22.30
2017-09-04T09:00:16.845Z,22.30
2017-09-04T09:02:44.869Z,22.30
2017-09-04T09:05:14.877Z,22.50
2017-09-04T09:07:42.906Z,22.20
2017-09-04T09:10:10.930Z,22.60
2017-09-04T09:12:38.953Z,22.40
2017-09-04T09:15:06.961Z,22.40
2017-09-04T09:17:34.985Z,22.60
2017-09-04T09:20:03.001Z,23.10
2017-09-04T09:22:31.917Z,23.40
2017-09-04T09:25:01.709Z,23.30
2017-09-04T09:27:29.729Z,23.30
2017-09-04T09:29:58.658Z,23.30
2017-09-04T09:32:27.665Z,23.60
2017-09-04T09:34:58.898Z,23.90
2017-09-04T09:37:27.685Z,23.60
2017-09-04T09:39:56.577Z,23.50
2017-09-04T09:42:24.593Z,23.90
2017-09-04T09:44:52.622Z,24.00
2017-09-04T09:47:21.601Z,24.40
2017-09-04T09:49:50.602Z,25.10
2017-09-04T09:52:22.254Z,25.10
2017-09-04T09:54:50.269Z,24.90
2017-09-04T09:57:18.285Z,24.70
2017-09-04T09:59:49.185Z,24.50
2017-09-04T10:02:17.205Z,24.60
2017-09-04T10:04:45.225Z,24.20
2017-09-04T10:07:13.301Z,24.40
2017-09-04T10:09:41.357Z,24.30
2017-09-04T10:12:13.509Z,23.50
2017-09-04T10:14:46.086Z,22.70
2017-09-04T10:17:17.009Z,22.20
2017-09-04T10:19:50.873Z,21.60
2017-09-04T10:22:19.617Z,23.50
2017-09-04T10:24:49.409Z,23.90
2017-09-04T10:27:17.889Z,23.90
2017-09-04T10:29:45.902Z,24.30
2017-09-04T10:32:13.937Z,25.20
2017-09-04T10:34:43.933Z,25.90
2017-09-04T10:37:11.973Z,26.90
2017-09-04T10:39:40.017Z,26.90
2017-09-04T10:42:08.056Z,27.60
2017-09-04T10:44:36.073Z,27.50
2017-09-04T10:47:04.109Z,27.00
2017-09-04T10:49:33.021Z,25.70
2017-09-04T10:52:01.029Z,24.90
2017-09-04T10:54:29.085Z,24.50
2017-09-04T10:56:58.989Z,24.00
2017-09-04T10:59:27.933Z,24.80
2017-09-04T11:01:55.965Z,25.80
2017-09-04T11:04:23.989Z,25.50
2017-09-04T11:06:52.777Z,24.60
2017-09-04T11:09:22.629Z,24.60
2017-09-04T11:11:50.665Z,24.30
2017-09-04T11:14:20.453Z,26.90
2017-09-04T11:16:48.485Z,26.80
2017-09-04T11:19:16.493Z,28.10
2017-09-04T11:21:44.569Z,30.00
2017-09-04T11:24:13.493Z,29.80
2017-09-04T11:26:41.520Z,29.50
2017-09-04T11:29:09.633Z,30.70
2017-09-04T11:31:37.633Z,30.30
2017-09-04T11:34:05.675Z,29.70
2017-09-04T11:36:34.453Z,27.70
2017-09-04T11:39:04.229Z,28.10
2017-09-04T11:41:33.212Z,28.10
2017-09-04T11:44:02.236Z,29.10
2017-09-04T11:46:30.264Z,30.10
2017-09-04T11:48:58.288Z,30.40
2017-09-04T11:51:28.072Z,31.10
2017-09-04T11:53:56.708Z,31.00
2017-09-04T11:56:25.762Z,30.70
2017-09-04T11:58:53.796Z,30.80
2017-09-04T12:01:22.828Z,31.20
2017-09-04T12:03:50.841Z,31.20
2017-09-04T12:06:18.868Z,32.10
2017-09-04T12:08:48.477Z,32.40
2017-09-04T12:11:18.469Z,32.40
2017-09-04T12:13:46.496Z,32.00
2017-09-04T12:16:16.460Z,31.20
2017-09-04T12:18:44.476Z,30.70
2017-09-04T12:21:12.496Z,29.40
2017-09-04T12:23:40.576Z,28.20
2017-09-04T12:26:08.605Z,27.50
2017-09-04T12:28:36.640Z,27.50
2017-09-04T12:31:05.444Z,26.40
2017-09-04T12:33:33.476Z,26.30
2017-09-04T12:36:03.272Z,24.10
2017-09-04T12:38:31.296Z,24.00
2017-09-04T12:41:00.863Z,23.20
2017-09-04T12:43:29.784Z,22.40
2017-09-04T12:45:57.811Z,21.60
2017-09-04T12:48:25.836Z,21.10
2017-09-04T12:50:53.847Z,20.80
2017-09-04T12:53:21.884Z,21.50
2017-09-04T12:55:49.904Z,21.80
2017-09-04T12:58:17.925Z,21.70
2017-09-04T13:00:45.950Z,21.60
2017-09-04T13:03:14.747Z,22.90
2017-09-04T13:05:42.767Z,22.90
2017-09-04T13:08:10.795Z,24.20
2017-09-04T13:10:44.572Z,25.40
2017-09-04T13:13:18.387Z,25.40
2017-09-04T13:15:52.884Z,26.00
2017-09-04T13:18:28.408Z,26.00
2017-09-04T13:21:03.079Z,26.20
2017-09-04T13:23:37.631Z,26.80
2017-09-04T13:26:12.339Z,25.90
2017-09-04T13:28:46.012Z,25.40
2017-09-04T13:31:19.743Z,24.40
2017-09-04T13:33:53.483Z,23.50
2017-09-04T13:36:27.228Z,23.10
2017-09-04T13:39:05.067Z,22.50
2017-09-04T13:41:38.855Z,22.00
2017-09-04T13:44:12.613Z,21.50
2017-09-04T13:46:46.896Z,21.20
2017-09-04T13:49:15.815Z,21.10
2017-09-04T14:05:09.691Z,20.60
2017-09-04T14:07:44.215Z,20.40
2017-09-04T14:10:14.727Z,20.30
2017-09-04T14:26:07.055Z,25.90
2017-09-04T14:28:37.056Z,27.10
2017-09-04T14:31:05.067Z,27.90
2017-09-04T14:33:33.086Z,27.70
2017-09-04T14:36:01.095Z,27.50
2017-09-04T14:38:32.115Z,27.70
2017-09-04T14:41:05.723Z,28.40
2017-09-04T14:43:44.610Z,29.20
2017-09-04T14:49:14.951Z,28.60
2017-09-04T14:51:42.962Z,28.80
2017-09-04T14:54:10.975Z,29.10
2017-09-04T14:56:38.987Z,29.60
2017-09-04T14:59:08.990Z,28.90
2017-09-04T15:01:37.010Z,29.50
2017-09-04T15:04:06.951Z,28.20
2017-09-04T15:06:37.737Z,27.50
2017-09-04T15:09:05.751Z,27.40
2017-09-04T15:11:37.694Z,26.80
2017-09-04T15:14:06.470Z,26.30
2017-09-04T15:16:34.491Z,26.30
2017-09-04T15:19:02.535Z,26.70
2017-09-04T15:21:30.549Z,26.90
2017-09-04T15:23:58.571Z,26.40
2017-09-04T15:26:26.594Z,26.00
2017-09-04T15:28:55.578Z,25.60
2017-09-04T15:31:23.606Z,25.50
2017-09-04T15:33:51.633Z,25.90
2017-09-04T15:36:20.610Z,26.30
2017-09-04T15:38:48.622Z,25.10
2017-09-04T15:41:18.546Z,24.40
2017-09-04T15:43:46.562Z,24.50
2017-09-04T15:46:14.570Z,25.00
2017-09-04T15:48:42.602Z,25.10
2017-09-04T15:51:11.602Z,25.40
2017-09-04T15:53:40.258Z,25.40
2017-09-04T15:56:10.179Z,25.40
2017-09-04T15:58:38.194Z,25.80
2017-09-04T16:01:06.266Z,25.90
2017-09-04T16:03:34.282Z,26.10
2017-09-04T16:06:07.174Z,25.10
2017-09-04T16:08:35.218Z,24.40
2017-09-04T16:11:03.238Z,24.40
2017-09-04T16:13:31.250Z,24.30
2017-09-04T16:16:00.070Z,24.60
2017-09-04T16:18:29.965Z,24.50
2017-09-04T16:21:09.634Z,24.30
2017-09-04T16:23:40.794Z,24.30
2017-09-04T16:26:09.309Z,24.30
2017-09-04T16:28:54.046Z,24.20
2017-09-04T16:31:40.766Z,24.40
2017-09-04T16:34:10.342Z,24.30
2017-09-04T16:36:41.029Z,24.00
2017-09-04T16:39:27.641Z,23.70
2017-09-04T16:55:29.273Z,23.10
2017-09-04T16:57:57.294Z,23.00
2017-09-04T17:00:26.289Z,22.70
2017-09-04T17:02:55.293Z,22.50
2017-09-04T17:05:23.313Z,22.30
2017-09-04T17:07:52.362Z,22.00
2017-09-04T17:10:21.949Z,21.90
2017-09-04T17:12:51.561Z,21.50
2017-09-04T17:18:29.046Z,20.50
2017-09-04T17:20:57.238Z,20.00
2017-09-04T17:23:25.337Z,19.80
2017-09-04T17:25:54.249Z,19.60
2017-09-04T17:28:22.304Z,19.50
2017-09-04T17:30:51.093Z,19.20
2017-09-04T17:33:20.061Z,19.10
2017-09-04T17:35:48.537Z,18.70
2017-09-04T17:38:16.549Z,18.30
2017-09-04T17:40:45.336Z,17.40
2017-09-04T17:43:14.125Z,17.10
2017-09-04T17:45:42.149Z,17.00
2017-09-04T17:48:10.181Z,16.90
2017-09-04T17:50:38.221Z,16.60
2017-09-04T17:53:06.265Z,16.20
2017-09-04T17:55:34.333Z,15.90
2017-09-04T17:58:03.129Z,15.50
2017-09-04T18:00:32.053Z,15.50
2017-09-04T18:03:00.081Z,15.40
2017-09-04T18:05:28.105Z,15.30
2017-09-04T18:07:56.129Z,15.20
2017-09-04T18:10:25.105Z,15.00
2017-09-04T18:12:53.153Z,14.90
2017-09-04T18:15:21.161Z,14.70
2017-09-04T18:17:49.181Z,14.60
2017-09-04T18:20:17.228Z,14.50
2017-09-04T18:22:46.034Z,14.40
2017-09-04T18:25:14.796Z,14.30
2017-09-04T18:27:42.837Z,14.30
2017-09-04T18:30:11.773Z,14.20
2017-09-04T18:32:39.793Z,14.10
2017-09-04T18:35:08.820Z,13.90
2017-09-04T18:37:37.608Z,13.70
2017-09-04T18:40:05.632Z,13.60
2017-09-04T18:42:33.660Z,13.70
2017-09-04T18:45:01.680Z,13.70
2017-09-04T18:47:30.688Z,13.60
2017-09-04T18:49:58.925Z,13.50
2017-09-04T18:52:27.944Z,13.40
2017-09-04T18:54:55.972Z,13.40
2017-09-04T18:57:24.028Z,13.20
2017-09-04T18:59:52.060Z,13.00
2017-09-04T19:02:20.100Z,12.90
2017-09-04T19:04:48.148Z,12.70
2017-09-04T19:07:17.061Z,12.70
2017-09-04T19:09:45.088Z,12.70
2017-09-04T19:12:13.120Z,12.70
2017-09-04T19:14:41.140Z,12.80
2017-09-04T19:17:09.388Z,12.80
2017-09-04T19:19:38.328Z,12.80
2017-09-04T19:22:06.936Z,12.70
2017-09-04T19:24:34.960Z,12.70
2017-09-04T19:27:03.001Z,12.60
2017-09-04T19:29:31.972Z,12.50
2017-09-04T19:31:59.996Z,12.50
2017-09-04T19:34:28.939Z,12.40
2017-09-04T19:36:56.956Z,12.40
2017-09-04T19:39:24.984Z,12.40
2017-09-04T19:41:53.020Z,12.50
2017-09-04T19:44:22.047Z,12.60
2017-09-04T19:46:50.087Z,12.70
2017-09-04T19:49:18.151Z,12.80
2017-09-04T19:51:46.172Z,12.90
2017-09-04T19:54:15.143Z,13.00
2017-09-04T19:56:43.196Z,13.00
2017-09-04T19:59:11.224Z,13.00
2017-09-04T20:01:41.001Z,12.90
2017-09-04T20:04:10.019Z,12.90
2017-09-04T20:06:38.975Z,12.90
2017-09-04T20:09:07.967Z,12.80
2017-09-04T20:11:36.895Z,12.70
2017-09-04T20:14:04.921Z,12.70
2017-09-04T20:16:32.939Z,12.60
2017-09-04T20:19:00.979Z,12.50
2017-09-04T20:21:29.000Z,12.30
2017-09-04T20:23:57.024Z,12.20
2017-09-04T20:26:26.003Z,12.10
2017-09-04T20:28:54.923Z,12.20
2017-09-04T20:31:22.953Z,12.20
2017-09-04T20:33:50.999Z,12.20
2017-09-04T20:36:20.027Z,12.20
2017-09-04T20:38:48.039Z,12.20
2017-09-04T20:41:16.091Z,12.20
2017-09-04T20:43:45.875Z,12.20
2017-09-04T20:46:13.919Z,12.20
2017-09-04T20:48:41.962Z,12.20
2017-09-04T20:51:09.996Z,12.20
2017-09-04T20:53:38.551Z,12.30
2017-09-04T20:56:06.586Z,12.20
2017-09-04T20:58:34.610Z,12.20
2017-09-04T21:01:03.175Z,12.20
2017-09-04T21:03:31.190Z,12.20
2017-09-04T21:06:00.154Z,12.20
2017-09-04T21:08:30.427Z,12.30
2017-09-04T21:10:59.222Z,12.30
2017-09-04T21:13:27.254Z,12.30
2017-09-04T21:15:55.283Z,12.20
2017-09-04T21:18:24.290Z,12.10
2017-09-04T21:20:52.326Z,12.10
2017-09-04T21:23:20.346Z,12.00
2017-09-04T21:25:49.262Z,12.00
2017-09-04T21:28:18.211Z,11.90
2017-09-04T21:30:48.086Z,11.80
2017-09-04T21:33:26.842Z,11.70
2017-09-04T21:35:54.870Z,11.70
2017-09-04T21:38:23.920Z,11.70
2017-09-04T21:40:55.666Z,11.70
2017-09-04T21:43:23.694Z,11.60
2017-09-04T21:45:51.718Z,11.60
2017-09-04T21:48:20.735Z,11.60
2017-09-04T21:50:49.534Z,11.50
2017-09-04T21:53:17.558Z,11.50
2017-09-04T21:55:45.594Z,11.40
2017-09-04T21:58:13.626Z,11.40
2017-09-04T22:00:43.618Z,11.30
2017-09-04T22:03:12.626Z,11.30
2017-09-04T22:05:42.422Z,11.30
2017-09-04T22:08:10.458Z,11.20
2017-09-04T22:10:38.486Z,11.20
2017-09-04T22:13:06.522Z,11.30
2017-09-04T22:15:39.102Z,11.40
2017-09-04T22:18:07.134Z,11.40
2017-09-04T22:20:35.390Z,11.30
2017-09-04T22:23:04.362Z,11.20
2017-09-04T22:25:36.354Z,11.20
2017-09-04T22:28:05.530Z,11.10
2017-09-04T22:30:34.617Z,11.00
2017-09-04T22:33:03.530Z,10.80
2017-09-04T22:35:31.682Z,10.80
2017-09-04T22:38:00.090Z,10.70
2017-09-04T22:40:28.386Z,10.60
2017-09-04T22:42:57.118Z,10.50
2017-09-04T22:45:28.105Z,10.40
2017-09-04T22:47:57.165Z,10.40
2017-09-04T22:50:26.138Z,10.40
2017-09-04T22:52:54.222Z,10.40
2017-09-04T22:55:23.206Z,10.30
2017-09-04T22:57:51.226Z,10.20
2017-09-04T23:00:19.250Z,10.20
2017-09-04T23:02:47.295Z,10.10
2017-09-04T23:05:15.565Z,10.10
2017-09-04T23:07:43.593Z,10.00
2017-09-04T23:10:11.638Z,9.80
2017-09-04T23:12:39.650Z,9.70
2017-09-04T23:15:07.926Z,9.60
2017-09-04T23:17:36.982Z,9.60
2017-09-04T23:20:06.577Z,9.60
2017-09-04T23:22:35.549Z,9.60
2017-09-04T23:25:03.878Z,9.60
2017-09-04T23:27:31.902Z,9.60
2017-09-04T23:29:59.925Z,9.80
2017-09-04T23:32:27.970Z,9.80
2017-09-04T23:34:56.758Z,9.80
2017-09-04T23:37:24.777Z,9.80
2017-09-04T23:39:52.801Z,9.80
2017-09-04T23:42:20.832Z,9.80
2017-09-04T23:44:48.857Z,9.70
2017-09-04T23:47:16.902Z,9.70
2017-09-04T23:49:46.865Z,9.60
2017-09-04T23:52:14.897Z,9.60
2017-09-04T23:54:46.642Z,9.60
2017-09-04T23:57:16.426Z,9.70
2017-09-04T23:59:44.441Z,9.70
